createdAt,value
2022-09-29T00:00:28.158Z,2.53
2022-09-29T00:02:56.278Z,2.60
2022-09-29T00:05:24.481Z,2.42
2022-09-29T00:07:52.523Z,2.80
2022-09-29T00:10:21.999Z,2.70
2022-09-29T00:12:50.135Z,2.70
2022-09-29T00:15:18.376Z,2.20
2022-09-29T00:18:02.978Z,2.58
2022-09-29T00:20:34.553Z,2.40
2022-09-29T00:23:02.702Z,2.55
2022-09-29T00:25:32.154Z,2.63
2022-09-29T00:28:00.237Z,2.22
2022-09-29T00:30:28.921Z,2.35
2022-09-29T00:32:56.947Z,2.58
2022-09-29T00:35:24.982Z,2.22
2022-09-29T00:37:53.007Z,2.70
2022-09-29T00:40:21.100Z,2.50
2022-09-29T00:42:50.546Z,2.53
2022-09-29T00:45:20.497Z,2.53
2022-09-29T00:47:54.205Z,2.40
2022-09-29T00:50:24.353Z,2.50
2022-09-29T00:52:53.656Z,3.00
2022-09-29T00:55:24.962Z,2.50
2022-09-29T00:57:55.994Z,2.60
2022-09-29T01:00:24.277Z,2.40
2022-09-29T01:02:53.837Z,2.45
2022-09-29T01:05:22.928Z,2.70
2022-09-29T01:07:51.614Z,2.50
2022-09-29T01:10:19.971Z,2.38
2022-09-29T01:12:48.433Z,2.45
2022-09-29T01:15:19.128Z,2.35
2022-09-29T01:17:47.624Z,2.65
2022-09-29T01:20:17.074Z,2.40
2022-09-29T01:23:14.497Z,2.70
2022-09-29T01:26:04.367Z,2.70
2022-09-29T01:28:52.020Z,2.55
2022-09-29T01:31:24.324Z,2.42
2022-09-29T01:33:54.882Z,2.47
2022-09-29T01:36:25.828Z,2.50
2022-09-29T01:38:59.511Z,2.50
2022-09-29T01:41:32.066Z,2.35
2022-09-29T01:44:03.171Z,2.60
2022-09-29T01:46:33.259Z,2.50
2022-09-29T01:49:01.913Z,2.67
2022-09-29T01:51:31.315Z,2.58
2022-09-29T01:54:01.169Z,2.60
2022-09-29T01:56:30.954Z,2.20
2022-09-29T01:59:00.892Z,2.42
2022-09-29T02:01:30.631Z,2.50
2022-09-29T02:04:01.653Z,2.45
2022-09-29T02:06:31.327Z,2.40
2022-09-29T02:09:00.065Z,2.17
2022-09-29T02:11:28.166Z,2.55
2022-09-29T02:13:58.707Z,2.72
2022-09-29T02:16:29.801Z,2.20
2022-09-29T02:19:01.418Z,2.08
2022-09-29T02:21:29.517Z,2.53
2022-09-29T02:23:57.568Z,2.58
2022-09-29T02:26:25.633Z,2.47
2022-09-29T02:28:53.684Z,2.33
2022-09-29T02:31:21.832Z,2.22
2022-09-29T02:33:49.891Z,2.30
2022-09-29T02:36:27.166Z,2.47
2022-09-29T02:38:59.034Z,2.28
2022-09-29T02:41:33.824Z,2.58
2022-09-29T02:44:12.145Z,2.35
2022-09-29T02:46:45.509Z,2.67
2022-09-29T02:49:29.269Z,2.60
2022-09-29T02:51:59.416Z,1.98
2022-09-29T02:54:39.027Z,2.65
2022-09-29T02:57:14.056Z,2.30
2022-09-29T02:59:46.076Z,2.30
2022-09-29T03:02:14.412Z,2.20
2022-09-29T03:04:42.460Z,2.53
2022-09-29T03:07:11.865Z,2.30
2022-09-29T03:09:39.940Z,2.33
2022-09-29T03:12:08.146Z,2.40
2022-09-29T03:14:36.213Z,2.35
2022-09-29T03:17:04.256Z,2.70
2022-09-29T03:19:32.637Z,2.60
2022-09-29T03:22:00.753Z,2.33
2022-09-29T03:24:30.994Z,2.40
2022-09-29T03:26:59.217Z,2.30
2022-09-29T03:29:27.250Z,2.22
2022-09-29T03:31:55.360Z,2.50
2022-09-29T03:34:23.478Z,2.30
2022-09-29T03:36:51.512Z,2.30
2022-09-29T03:39:19.640Z,2.50
2022-09-29T03:41:49.044Z,2.60
2022-09-29T03:44:17.098Z,2.58
2022-09-29T03:46:46.152Z,2.40
2022-09-29T03:49:15.085Z,2.40
2022-09-29T03:51:43.203Z,2.10
2022-09-29T03:54:11.442Z,2.50
2022-09-29T03:56:39.524Z,2.30
2022-09-29T03:59:12.156Z,2.42
2022-09-29T04:01:41.137Z,2.55
2022-09-29T04:04:10.557Z,2.30
2022-09-29T04:06:38.597Z,2.40
2022-09-29T04:09:06.645Z,2.15
2022-09-29T04:11:34.728Z,2.38
2022-09-29T04:14:02.785Z,2.33
2022-09-29T04:16:32.302Z,2.40
2022-09-29T04:19:00.378Z,2.38
2022-09-29T04:21:28.511Z,2.30
2022-09-29T04:23:56.557Z,2.20
2022-09-29T04:26:24.604Z,2.20
2022-09-29T04:28:52.647Z,2.03
2022-09-29T04:31:20.745Z,2.50
2022-09-29T04:33:50.194Z,2.20
2022-09-29T04:36:18.228Z,2.40
2022-09-29T04:38:46.281Z,2.45
2022-09-29T04:41:14.364Z,2.40
2022-09-29T04:43:42.398Z,2.47
2022-09-29T04:46:10.676Z,2.10
2022-09-29T04:48:38.723Z,2.22
2022-09-29T04:51:10.321Z,2.30
2022-09-29T04:53:38.414Z,2.38
2022-09-29T04:56:07.789Z,2.50
2022-09-29T04:58:36.057Z,2.30
2022-09-29T05:01:08.689Z,2.20
2022-09-29T05:03:36.810Z,2.05
2022-09-29T05:06:05.124Z,2.42
2022-09-29T05:08:34.546Z,2.13
2022-09-29T05:11:05.253Z,2.20
2022-09-29T05:13:33.285Z,2.35
2022-09-29T05:16:01.733Z,2.00
2022-09-29T05:18:29.957Z,2.53
2022-09-29T05:21:16.217Z,2.25
2022-09-29T05:23:47.505Z,2.20
2022-09-29T05:26:16.507Z,2.20
2022-09-29T05:28:45.418Z,2.08
2022-09-29T05:31:13.659Z,2.30
2022-09-29T05:33:41.767Z,2.33
2022-09-29T05:36:11.038Z,2.28
2022-09-29T05:38:39.716Z,2.60
2022-09-29T05:41:10.241Z,2.55
2022-09-29T05:43:38.315Z,2.83
2022-09-29T05:46:07.292Z,2.80
2022-09-29T05:48:35.819Z,3.70
2022-09-29T05:51:08.549Z,5.10
2022-09-29T05:53:36.573Z,4.68
2022-09-29T05:56:09.530Z,4.88
2022-09-29T05:58:37.725Z,4.05
2022-09-29T06:01:08.960Z,5.45
2022-09-29T06:03:37.153Z,5.93
2022-09-29T06:06:09.257Z,6.20
2022-09-29T06:08:37.487Z,6.22
2022-09-29T06:11:06.811Z,7.00
2022-09-29T06:13:38.448Z,6.68
2022-09-29T06:16:06.925Z,6.43
2022-09-29T06:18:35.029Z,6.18
2022-09-29T06:21:03.765Z,5.72
2022-09-29T06:23:31.943Z,5.85
2022-09-29T06:26:01.961Z,6.07
2022-09-29T06:28:30.092Z,6.32
2022-09-29T06:31:01.769Z,5.72
2022-09-29T06:33:30.129Z,6.05
2022-09-29T06:36:15.565Z,5.50
2022-09-29T06:38:43.617Z,5.10
2022-09-29T06:41:11.722Z,5.38
2022-09-29T06:43:39.754Z,5.50
2022-09-29T06:46:09.196Z,5.60
2022-09-29T06:48:37.737Z,5.40
2022-09-29T06:51:10.482Z,4.75
2022-09-29T06:53:39.319Z,5.57
2022-09-29T06:56:09.013Z,5.15
2022-09-29T06:58:37.114Z,4.80
2022-09-29T07:01:06.068Z,4.72
2022-09-29T07:03:36.283Z,4.75
2022-09-29T07:06:20.590Z,4.72
2022-09-29T07:08:48.800Z,4.90
2022-09-29T07:11:16.912Z,4.70
2022-09-29T07:13:45.074Z,4.72
2022-09-29T07:16:13.971Z,4.35
2022-09-29T07:18:43.497Z,4.35
2022-09-29T07:21:12.585Z,4.13
2022-09-29T07:23:42.273Z,3.97
2022-09-29T07:26:10.356Z,4.35
2022-09-29T07:28:38.452Z,3.92
2022-09-29T07:31:14.292Z,4.40
2022-09-29T07:33:44.244Z,3.92
2022-09-29T07:36:12.415Z,4.22
2022-09-29T07:38:40.547Z,4.20
2022-09-29T07:41:10.061Z,3.90
2022-09-29T07:43:38.141Z,4.60
2022-09-29T07:46:06.809Z,3.83
2022-09-29T07:48:35.175Z,4.07
2022-09-29T07:51:06.161Z,5.00
2022-09-29T07:53:34.409Z,6.10
2022-09-29T07:56:04.311Z,9.95
2022-09-29T07:58:33.356Z,6.80
2022-09-29T08:01:01.783Z,6.95
2022-09-29T08:03:30.365Z,7.15
2022-09-29T08:05:59.225Z,7.68
2022-09-29T08:08:28.648Z,7.68
2022-09-29T08:11:03.381Z,6.85
2022-09-29T08:13:32.706Z,6.53
2022-09-29T08:16:00.802Z,6.63
2022-09-29T08:18:29.165Z,6.68
2022-09-29T08:20:59.982Z,6.22
2022-09-29T08:23:32.879Z,7.07
2022-09-29T08:26:02.648Z,6.90
2022-09-29T08:28:32.499Z,6.72
2022-09-29T08:31:04.464Z,6.63
2022-09-29T08:33:33.319Z,6.47
2022-09-29T08:36:03.624Z,6.57
2022-09-29T08:38:33.159Z,6.28
2022-09-29T08:41:04.403Z,6.32
2022-09-29T08:43:35.368Z,6.38
2022-09-29T08:46:04.345Z,7.00
2022-09-29T08:48:34.093Z,7.10
2022-09-29T08:51:04.590Z,6.88
2022-09-29T08:53:35.302Z,6.88
2022-09-29T08:56:04.736Z,6.80
2022-09-29T08:58:32.903Z,6.85
2022-09-29T09:01:09.884Z,7.22
2022-09-29T09:04:04.044Z,7.47
2022-09-29T09:06:39.007Z,6.30
2022-09-29T09:09:35.543Z,7.93
2022-09-29T09:12:18.989Z,7.07
2022-09-29T09:15:06.794Z,7.28
2022-09-29T09:17:52.108Z,7.75
2022-09-29T09:20:26.888Z,6.47
2022-09-29T09:22:58.139Z,7.03
2022-09-29T09:25:31.803Z,7.22
2022-09-29T09:28:06.969Z,7.20
2022-09-29T09:30:43.082Z,6.28
2022-09-29T09:33:26.859Z,6.75
2022-09-29T09:35:59.723Z,6.80
2022-09-29T09:38:29.908Z,7.00
2022-09-29T09:40:59.331Z,7.03
2022-09-29T09:43:28.834Z,6.97
2022-09-29T09:45:59.377Z,7.03
2022-09-29T09:48:31.797Z,6.68
2022-09-29T09:51:01.134Z,6.55
2022-09-29T09:53:32.180Z,6.90
2022-09-29T09:56:06.483Z,6.35
2022-09-29T09:58:43.547Z,6.47
2022-09-29T10:01:12.358Z,6.78
2022-09-29T10:03:40.508Z,7.18
2022-09-29T10:06:09.300Z,6.70
2022-09-29T10:08:39.852Z,6.85
2022-09-29T10:11:20.190Z,6.95
2022-09-29T10:13:48.237Z,6.90
2022-09-29T10:16:18.839Z,6.78
2022-09-29T10:18:48.597Z,6.72
2022-09-29T10:21:23.820Z,6.00
2022-09-29T10:23:52.710Z,6.50
2022-09-29T10:26:25.995Z,6.35
2022-09-29T10:28:54.848Z,6.45
2022-09-29T10:31:25.210Z,6.35
2022-09-29T10:33:55.673Z,6.30
2022-09-29T10:36:24.339Z,6.05
2022-09-29T10:38:53.482Z,5.80
2022-09-29T10:41:25.158Z,5.95
2022-09-29T10:43:53.903Z,5.97
2022-09-29T10:46:39.450Z,6.15
2022-09-29T10:49:12.017Z,5.50
2022-09-29T10:51:40.208Z,6.38
2022-09-29T10:54:09.441Z,6.18
2022-09-29T10:56:38.833Z,5.80
2022-09-29T10:59:06.871Z,5.70
2022-09-29T11:01:43.406Z,5.30
2022-09-29T11:04:17.940Z,6.00
2022-09-29T11:06:45.990Z,5.70
2022-09-29T11:09:28.698Z,5.72
2022-09-29T11:12:01.527Z,5.10
2022-09-29T11:14:33.223Z,5.65
2022-09-29T11:17:02.293Z,5.53
2022-09-29T11:19:31.082Z,5.55
2022-09-29T11:22:34.813Z,5.10
2022-09-29T11:25:15.275Z,5.47
2022-09-29T11:27:51.940Z,5.60
2022-09-29T11:30:20.913Z,5.40
2022-09-29T11:33:05.332Z,5.10
2022-09-29T11:35:38.891Z,5.30
2022-09-29T11:38:20.168Z,4.80
2022-09-29T11:40:54.434Z,5.38
2022-09-29T11:43:31.738Z,5.07
2022-09-29T11:46:04.464Z,5.53
2022-09-29T11:48:57.372Z,5.00
2022-09-29T11:51:29.557Z,5.32
2022-09-29T11:54:07.329Z,5.85
2022-09-29T11:56:39.474Z,5.20
2022-09-29T11:59:34.361Z,5.20
2022-09-29T12:02:18.152Z,5.15
2022-09-29T12:04:49.568Z,5.07
2022-09-29T12:07:22.261Z,5.00
2022-09-29T12:10:16.924Z,5.10
2022-09-29T12:12:46.929Z,4.80
2022-09-29T12:17:58.522Z,4.95
2022-09-29T12:20:27.741Z,5.03
2022-09-29T12:22:56.306Z,4.80
2022-09-29T12:25:26.005Z,4.82
2022-09-29T12:27:55.768Z,4.85
2022-09-29T12:30:28.281Z,4.20
2022-09-29T12:32:58.905Z,4.93
2022-09-29T12:35:30.085Z,5.22
2022-09-29T12:37:58.954Z,4.88
2022-09-29T12:40:30.290Z,5.10
2022-09-29T12:43:03.893Z,4.55
2022-09-29T12:45:36.570Z,4.90
2022-09-29T12:48:13.773Z,5.07
2022-09-29T12:50:43.556Z,4.30
2022-09-29T12:55:46.200Z,4.80
2022-09-29T12:58:17.376Z,4.70
2022-09-29T13:00:46.957Z,4.22
2022-09-29T13:03:33.514Z,4.78
2022-09-29T13:06:09.949Z,4.63
2022-09-29T13:08:47.047Z,4.60
2022-09-29T13:11:41.104Z,4.40
2022-09-29T13:14:28.954Z,4.43
2022-09-29T13:17:04.988Z,4.30
2022-09-29T13:19:57.357Z,4.47
2022-09-29T13:22:34.982Z,4.25
2022-09-29T13:25:06.152Z,3.90
2022-09-29T13:27:34.968Z,4.10
2022-09-29T13:30:06.560Z,4.40
2022-09-29T13:32:40.313Z,3.92
2022-09-29T13:35:14.426Z,4.20
2022-09-29T13:37:45.257Z,4.40
2022-09-29T13:40:18.448Z,3.63
2022-09-29T13:42:47.269Z,3.72
2022-09-29T13:45:44.790Z,3.70
2022-09-29T13:48:43.763Z,3.30
2022-09-29T13:51:52.135Z,3.53
2022-09-29T13:54:25.298Z,3.45
2022-09-29T13:56:59.816Z,3.22
2022-09-29T13:59:28.803Z,3.28
2022-09-29T14:01:57.143Z,3.00
2022-09-29T14:04:48.247Z,3.28
2022-09-29T14:07:35.245Z,3.33
2022-09-29T14:10:07.593Z,3.13
2022-09-29T14:12:36.741Z,3.08
2022-09-29T14:15:05.081Z,3.20
2022-09-29T14:17:34.321Z,3.10
2022-09-29T14:20:07.138Z,2.88
2022-09-29T14:23:00.260Z,3.20
2022-09-29T14:25:55.368Z,3.20
2022-09-29T14:28:36.519Z,3.38
2022-09-29T14:31:04.677Z,3.00
2022-09-29T14:33:37.246Z,3.05
2022-09-29T14:36:08.720Z,3.00
2022-09-29T14:38:39.097Z,2.80
2022-09-29T14:41:23.731Z,2.92
2022-09-29T14:43:53.312Z,2.90
2022-09-29T14:47:28.116Z,2.40
2022-09-29T14:50:52.403Z,3.10
2022-09-29T14:53:44.086Z,2.42
2022-09-29T14:56:21.760Z,3.03
2022-09-29T14:59:00.159Z,2.70
2022-09-29T15:01:29.436Z,2.53
2022-09-29T15:03:59.124Z,2.80
2022-09-29T15:06:28.247Z,2.90
2022-09-29T15:08:59.960Z,2.63
2022-09-29T15:11:37.184Z,2.80
2022-09-29T15:14:18.849Z,3.25
2022-09-29T15:16:52.598Z,3.03
2022-09-29T15:19:36.560Z,2.55
2022-09-29T15:22:12.335Z,2.80
2022-09-29T15:24:58.596Z,3.13
2022-09-29T15:27:26.644Z,2.70
2022-09-29T15:29:56.321Z,3.10
2022-09-29T15:32:24.896Z,2.65
2022-09-29T15:34:56.017Z,3.03
2022-09-29T15:37:24.340Z,2.85
2022-09-29T15:39:54.467Z,2.58
2022-09-29T15:42:23.718Z,2.85
2022-09-29T15:44:56.941Z,3.13
2022-09-29T15:47:28.851Z,3.10
2022-09-29T15:49:56.879Z,3.03
2022-09-29T15:52:25.625Z,3.15
2022-09-29T15:54:57.101Z,2.72
2022-09-29T15:57:51.180Z,2.95
2022-09-29T16:00:44.024Z,3.33
2022-09-29T16:03:15.882Z,3.03
2022-09-29T16:05:53.608Z,2.97
2022-09-29T16:08:23.032Z,3.40
2022-09-29T16:10:55.211Z,3.25
2022-09-29T16:13:26.029Z,2.72
2022-09-29T16:15:56.180Z,3.38
2022-09-29T16:18:26.063Z,3.10
2022-09-29T16:20:59.105Z,2.97
2022-09-29T16:23:28.788Z,3.38
2022-09-29T16:26:18.913Z,3.20
2022-09-29T16:29:03.445Z,3.10
2022-09-29T16:31:32.334Z,3.10
2022-09-29T16:34:01.680Z,3.20
2022-09-29T16:36:34.398Z,3.35
2022-09-29T16:39:02.847Z,3.47
2022-09-29T16:41:35.644Z,3.30
2022-09-29T16:44:09.269Z,3.38
2022-09-29T16:46:43.675Z,3.40
2022-09-29T16:49:21.272Z,3.17
2022-09-29T16:51:50.184Z,3.30
2022-09-29T16:54:20.484Z,3.65
2022-09-29T16:56:50.651Z,3.72
2022-09-29T16:59:20.716Z,3.47
2022-09-29T17:01:49.061Z,3.90
2022-09-29T17:04:17.239Z,3.90
2022-09-29T17:06:47.564Z,3.90
2022-09-29T17:09:19.202Z,3.70
2022-09-29T17:11:49.561Z,4.25
2022-09-29T17:14:21.502Z,3.75
2022-09-29T17:16:51.904Z,4.07
2022-09-29T17:19:20.443Z,3.80
2022-09-29T17:21:48.651Z,4.03
2022-09-29T17:24:16.860Z,3.90
2022-09-29T17:27:03.533Z,3.95
2022-09-29T17:29:33.086Z,4.18
2022-09-29T17:32:02.321Z,4.25
2022-09-29T17:34:30.608Z,4.43
2022-09-29T17:36:59.759Z,4.38
2022-09-29T17:39:27.914Z,4.30
2022-09-29T17:41:56.051Z,4.60
2022-09-29T17:44:25.094Z,4.40
2022-09-29T17:47:05.420Z,4.95
2022-09-29T17:49:43.663Z,4.75
2022-09-29T17:52:15.456Z,4.82
2022-09-29T17:54:43.571Z,4.93
2022-09-29T17:57:17.341Z,5.32
2022-09-29T17:59:45.395Z,5.00
2022-09-29T18:02:14.797Z,5.53
2022-09-29T18:04:43.543Z,5.60
2022-09-29T18:07:12.077Z,5.50
2022-09-29T18:09:40.449Z,5.80
2022-09-29T18:12:08.564Z,5.72
2022-09-29T18:14:36.938Z,6.13
2022-09-29T18:17:05.826Z,6.35
2022-09-29T18:19:39.321Z,6.38
2022-09-29T18:22:08.002Z,6.55
2022-09-29T18:24:36.391Z,6.57
2022-09-29T18:27:04.596Z,6.63
2022-09-29T18:29:32.992Z,7.47
2022-09-29T18:32:01.287Z,7.20
2022-09-29T18:34:34.004Z,7.45
2022-09-29T18:37:04.577Z,7.50
2022-09-29T18:39:32.813Z,8.93
2022-09-29T18:42:00.833Z,7.93
2022-09-29T18:44:29.482Z,8.50
2022-09-29T18:46:57.718Z,7.85
2022-09-29T18:49:25.932Z,8.57
2022-09-29T18:51:53.969Z,8.70
2022-09-29T18:54:23.578Z,8.30
2022-09-29T18:56:54.595Z,8.45
2022-09-29T18:59:23.129Z,8.63
2022-09-29T19:01:51.391Z,8.82
2022-09-29T19:04:19.559Z,8.80
2022-09-29T19:06:47.608Z,9.18
2022-09-29T19:09:15.758Z,8.70
2022-09-29T19:11:45.530Z,9.20
2022-09-29T19:14:13.742Z,9.55
2022-09-29T19:16:41.845Z,9.95
2022-09-29T19:19:10.371Z,9.02
2022-09-29T19:21:38.502Z,9.48
2022-09-29T19:24:06.587Z,10.38
2022-09-29T19:26:34.668Z,9.80
2022-09-29T19:29:04.122Z,9.90
2022-09-29T19:31:32.255Z,10.10
2022-09-29T19:34:00.304Z,10.32
2022-09-29T19:36:28.339Z,10.98
2022-09-29T19:38:56.402Z,9.98
2022-09-29T19:41:25.091Z,10.85
2022-09-29T19:43:53.287Z,10.35
2022-09-29T19:46:22.802Z,10.73
2022-09-29T19:48:50.961Z,10.60
2022-09-29T19:51:36.573Z,10.90
2022-09-29T19:54:11.464Z,11.00
2022-09-29T19:56:40.535Z,11.25
2022-09-29T19:59:10.412Z,10.70
2022-09-29T20:01:40.051Z,11.80
2022-09-29T20:04:08.250Z,11.00
2022-09-29T20:06:36.785Z,11.38
2022-09-29T20:09:05.403Z,11.48
2022-09-29T20:11:33.983Z,11.95
2022-09-29T20:14:03.265Z,12.00
2022-09-29T20:16:33.530Z,12.15
2022-09-29T20:19:03.158Z,12.30
2022-09-29T20:21:31.390Z,11.82
2022-09-29T20:24:01.232Z,11.75
2022-09-29T20:26:29.521Z,11.82
2022-09-29T20:28:58.874Z,11.68
2022-09-29T20:31:27.202Z,11.57
2022-09-29T20:33:55.299Z,11.63
2022-09-29T20:36:24.739Z,11.90
2022-09-29T20:38:52.870Z,11.43
2022-09-29T20:41:20.907Z,11.45
2022-09-29T20:43:49.519Z,12.40
2022-09-29T20:46:17.691Z,11.93
2022-09-29T20:48:45.812Z,12.02
2022-09-29T20:51:15.255Z,12.10
2022-09-29T20:53:46.414Z,11.75
2022-09-29T20:56:16.306Z,12.05
2022-09-29T20:58:44.906Z,11.77
2022-09-29T21:01:14.219Z,11.90
2022-09-29T21:03:42.334Z,11.45
2022-09-29T21:06:10.986Z,12.15
2022-09-29T21:08:41.337Z,12.07
2022-09-29T21:11:10.781Z,12.07
2022-09-29T21:13:38.908Z,12.13
2022-09-29T21:16:08.054Z,12.02
2022-09-29T21:18:36.213Z,12.25
2022-09-29T21:21:06.859Z,12.13
2022-09-29T21:23:35.324Z,11.85
2022-09-29T21:26:04.590Z,12.45
2022-09-29T21:28:37.044Z,12.02
2022-09-29T21:31:06.148Z,11.75
2022-09-29T21:33:34.337Z,12.00
2022-09-29T21:36:03.295Z,12.00
2022-09-29T21:38:31.493Z,11.85
2022-09-29T21:41:03.812Z,11.95
2022-09-29T21:43:33.910Z,12.98
2022-09-29T21:46:03.192Z,12.70
2022-09-29T21:48:31.606Z,12.20
2022-09-29T21:51:04.118Z,12.73
2022-09-29T21:53:32.647Z,12.25
2022-09-29T21:56:02.085Z,12.82
2022-09-29T21:58:30.280Z,13.00
2022-09-29T22:00:59.828Z,13.07
2022-09-29T22:03:31.633Z,13.07
2022-09-29T22:06:00.890Z,12.88
2022-09-29T22:08:28.956Z,13.35
2022-09-29T22:10:57.365Z,12.52
2022-09-29T22:13:25.757Z,12.90
2022-09-29T22:15:54.441Z,13.05
2022-09-29T22:18:29.675Z,13.48
2022-09-29T22:21:06.489Z,13.13
2022-09-29T22:23:34.618Z,13.80
2022-09-29T22:26:03.433Z,13.82
2022-09-29T22:28:32.262Z,13.48
2022-09-29T22:31:08.617Z,13.80
2022-09-29T22:33:39.286Z,13.90
2022-09-29T22:36:07.484Z,14.40
2022-09-29T22:38:35.981Z,13.13
2022-09-29T22:41:08.629Z,13.82
2022-09-29T22:43:36.730Z,14.23
2022-09-29T22:46:04.900Z,14.23
2022-09-29T22:48:33.033Z,13.82
2022-09-29T22:51:02.539Z,14.18
2022-09-29T22:53:30.648Z,14.52
2022-09-29T22:55:58.808Z,14.15
2022-09-29T22:58:26.863Z,15.50
2022-09-29T23:01:02.408Z,14.63
2022-09-29T23:03:30.669Z,14.35
2022-09-29T23:05:59.449Z,14.43
2022-09-29T23:08:30.430Z,14.43
2022-09-29T23:10:58.905Z,14.63
2022-09-29T23:13:27.676Z,14.93
2022-09-29T23:15:55.824Z,15.63
2022-09-29T23:18:23.941Z,14.90
2022-09-29T23:20:51.988Z,15.55
2022-09-29T23:23:20.580Z,15.10
2022-09-29T23:25:50.271Z,15.70
2022-09-29T23:28:18.353Z,15.20
2022-09-29T23:30:46.468Z,14.45
2022-09-29T23:33:14.501Z,14.93
2022-09-29T23:35:42.532Z,16.10
2022-09-29T23:38:28.570Z,15.13
2022-09-29T23:40:58.000Z,15.90
2022-09-29T23:43:26.069Z,14.98
2022-09-29T23:45:54.114Z,15.45
2022-09-29T23:48:23.598Z,15.20
2022-09-29T23:50:51.789Z,15.60
2022-09-29T23:53:19.808Z,15.80
2022-09-29T23:55:47.870Z,14.90
2022-09-29T23:58:17.274Z,15.27
